Time;durP1;ratioP1;P1;durP2;ratioP2;P2;SDS_P1;SDS_P2;PMS_P1;PMS_P2;Temp;Humidity;BMP_temperature;BMP_pressure;BME280_temperature;BME280_humidity;BME280_pressure;Samples;Min_cycle;Max_cycle;Signal;HPM_P1;HPM_P2
2022/12/19 00:01:04;;;;;;;;;24.00;18.00;;;;;7.64;100.00;101592.25;5052587;28;62522;-71
2022/12/19 00:03:30;;;;;;;;;20.00;15.25;;;;;7.61;100.00;101582.50;5050624;28;45612;-72
2022/12/19 00:05:55;;;;;;;;;19.50;15.00;;;;;7.63;100.00;101579.94;5050259;28;45367;-72
2022/12/19 00:08:21;;;;;;;;;15.00;10.50;;;;;7.69;100.00;101587.16;5053682;28;55583;-72
2022/12/19 00:10:57;;;;;;;;;17.25;12.00;;;;;7.66;100.00;101566.88;5047678;28;45241;-71
2022/12/19 00:13:23;;;;;;;;;17.75;14.25;;;;;7.66;100.00;101569.53;5051384;28;45502;-71
2022/12/19 00:15:48;;;;;;;;;19.75;13.50;;;;;7.69;100.00;101563.50;5055883;28;45668;-71
2022/12/19 00:18:14;;;;;;;;;19.00;14.00;;;;;7.73;100.00;101558.41;5054489;28;63620;-72
2022/12/19 00:20:39;;;;;;;;;15.75;13.75;;;;;7.71;100.00;101565.31;5054792;28;59598;-71
2022/12/19 00:23:04;;;;;;;;;13.75;11.00;;;;;7.75;100.00;101554.06;5054106;28;57702;-70
2022/12/19 00:25:30;;;;;;;;;18.25;13.75;;;;;7.79;100.00;101568.22;5055861;28;45331;-71
2022/12/19 00:27:55;;;;;;;;;12.00;10.00;;;;;7.76;100.00;101552.34;5055765;28;63104;-72
2022/12/19 00:30:20;;;;;;;;;12.00;12.00;;;;;7.81;100.00;101570.03;5055647;28;50407;-74
2022/12/19 00:32:46;;;;;;;;;17.00;12.75;;;;;7.71;100.00;101533.78;5055801;28;55943;-71
2022/12/19 00:35:12;;;;;;;;;14.25;11.75;;;;;7.84;100.00;101549.13;5052127;28;45380;-72
2022/12/19 00:37:37;;;;;;;;;17.50;11.50;;;;;7.86;100.00;101570.22;5053131;28;47505;-71
2022/12/19 00:40:04;;;;;;;;;12.25;7.75;;;;;7.84;100.00;101522.84;5053649;28;45476;-73
2022/12/19 00:42:29;;;;;;;;;15.50;11.25;;;;;7.86;100.00;101539.53;5047466;28;45532;-71
2022/12/19 00:44:54;;;;;;;;;13.50;12.00;;;;;7.88;100.00;101522.09;5050667;28;53902;-71
2022/12/19 00:47:20;;;;;;;;;17.75;15.75;;;;;7.91;100.00;101531.81;5054418;28;46422;-72
2022/12/19 00:49:45;;;;;;;;;13.75;12.00;;;;;7.91;100.00;101510.78;5049953;28;59477;-72
2022/12/19 00:52:10;;;;;;;;;15.50;11.25;;;;;7.92;100.00;101514.28;5052760;28;45436;-72
2022/12/19 00:54:36;;;;;;;;;13.25;10.00;;;;;7.94;100.00;101517.91;5055507;28;52959;-71
2022/12/19 00:57:01;;;;;;;;;16.00;10.75;;;;;8.00;100.00;101528.59;5053142;28;52322;-73
2022/12/19 00:59:26;;;;;;;;;10.75;10.75;;;;;7.96;100.00;101514.44;5053427;28;58191;-70
2022/12/19 01:01:52;;;;;;;;;14.50;10.25;;;;;7.97;100.00;101516.22;5051948;28;45296;-72
2022/12/19 01:04:18;;;;;;;;;17.75;10.75;;;;;7.97;100.00;101513.59;5049200;28;45407;-71
2022/12/19 01:06:43;;;;;;;;;14.75;11.50;;;;;8.02;100.00;101490.97;5050729;28;45664;-72
2022/12/19 01:09:10;;;;;;;;;10.00;10.00;;;;;8.06;100.00;101523.53;5050394;28;45503;-73
2022/12/19 01:14:19;;;;;;;;;13.25;13.25;;;;;8.13;100.00;101525.50;5053452;28;45495;-71
2022/12/19 01:16:44;;;;;;;;;12.00;10.75;;;;;8.16;100.00;101514.22;5055785;28;46461;-72
2022/12/19 01:19:10;;;;;;;;;11.25;7.50;;;;;8.17;100.00;101516.88;5043750;28;52295;-71
2022/12/19 01:21:36;;;;;;;;;13.25;10.00;;;;;8.15;100.00;101500.16;5048855;28;54817;-72
2022/12/19 01:24:02;;;;;;;;;14.50;12.00;;;;;8.18;100.00;101518.66;5053024;28;54868;-72
2022/12/19 01:26:28;;;;;;;;;12.75;11.50;;;;;8.16;100.00;101508.94;5055102;28;46546;-72
2022/12/19 01:28:54;;;;;;;;;10.00;8.00;;;;;8.21;100.00;101504.72;5051948;28;45335;-73
2022/12/19 01:31:19;;;;;;;;;11.50;8.25;;;;;8.23;100.00;101531.97;5052894;28;56343;-72
2022/12/19 01:33:45;;;;;;;;;10.25;10.00;;;;;8.23;100.00;101501.28;5051776;28;45414;-72
2022/12/19 01:36:10;;;;;;;;;8.00;8.00;;;;;8.30;100.00;101537.44;5052110;28;63157;-72
2022/12/19 01:38:36;;;;;;;;;7.25;7.25;;;;;8.32;100.00;101517.38;5050491;28;61118;-71
2022/12/19 01:41:02;;;;;;;;;15.75;9.75;;;;;8.33;100.00;101520.88;5055449;28;46443;-72
2022/12/19 01:43:51;;;;;;;;;12.75;10.50;;;;;8.26;100.00;101506.66;5051645;28;45638;-71
2022/12/19 01:46:40;;;;;;;;;8.00;8.00;;;;;8.34;100.00;101528.81;5038047;28;48091;-72
2022/12/19 01:49:14;;;;;;;;;10.50;9.25;;;;;8.33;100.00;101515.63;5042628;28;45451;-72
2022/12/19 01:51:43;;;;;;;;;16.75;11.00;;;;;8.38;100.00;101503.53;5046355;28;45382;-71
2022/12/19 01:54:13;;;;;;;;;11.00;8.00;;;;;8.37;100.00;101512.28;5037514;28;45541;-71
2022/12/19 01:56:41;;;;;;;;;12.00;9.25;;;;;8.41;100.00;101511.50;5036899;28;45458;-72
2022/12/19 01:59:14;;;;;;;;;11.25;10.00;;;;;8.43;100.00;101527.38;5037344;28;45413;-72
2022/12/19 02:01:40;;;;;;;;;9.50;9.50;;;;;8.38;100.00;101530.75;5035290;28;45337;-71
2022/12/19 02:04:06;;;;;;;;;10.00;5.00;;;;;8.45;100.00;101530.94;5053157;28;45356;-71
2022/12/19 02:06:33;;;;;;;;;15.50;12.00;;;;;8.46;100.00;101535.34;5036822;28;46244;-71
2022/12/19 02:08:59;;;;;;;;;12.50;9.75;;;;;8.42;100.00;101515.94;5036532;28;45405;-72
2022/12/19 02:11:25;;;;;;;;;12.25;8.50;;;;;8.49;100.00;101527.56;5029148;28;56147;-72
2022/12/19 02:13:51;;;;;;;;;11.75;9.25;;;;;8.50;100.00;101526.69;5057843;28;45127;-72
2022/12/19 02:16:36;;;;;;;;;15.75;11.50;;;;;8.46;100.00;101514.28;5053525;28;45385;-73
2022/12/19 02:19:05;;;;;;;;;8.75;8.75;;;;;8.51;100.00;101532.00;5043730;28;45348;-72
2022/12/19 02:22:00;;;;;;;;;11.00;9.50;;;;;8.52;100.00;101525.91;5039954;28;45301;-72
2022/12/19 02:24:25;;;;;;;;;12.75;10.00;;;;;8.53;100.00;101513.66;5039594;28;45349;-71
2022/12/19 02:27:12;;;;;;;;;11.75;9.00;;;;;8.55;100.00;101511.94;5058149;28;45527;-71
2022/12/19 02:29:52;;;;;;;;;7.00;7.00;;;;;8.56;100.00;101518.97;5050140;28;45210;-72
2022/12/19 02:32:47;;;;;;;;;12.00;10.00;;;;;8.58;100.00;101504.16;5038385;28;45499;-73
2022/12/19 02:35:26;;;;;;;;;10.00;6.75;;;;;8.55;100.00;101520.72;5052209;28;45592;-73
2022/12/19 02:38:01;;;;;;;;;8.50;7.75;;;;;8.55;100.00;101509.31;5038782;28;46610;-72
2022/12/19 02:40:32;;;;;;;;;6.50;6.50;;;;;8.60;100.00;101521.75;5039708;28;45418;-71
2022/12/19 02:43:00;;;;;;;;;11.00;8.00;;;;;8.59;100.00;101513.81;5035200;28;46047;-72
2022/12/19 02:45:35;;;;;;;;;11.75;8.25;;;;;8.61;100.00;101513.00;5035991;28;45507;-72
2022/12/19 02:48:00;;;;;;;;;9.00;8.50;;;;;8.61;100.00;101518.28;5035152;28;45706;-73
2022/12/19 02:50:38;;;;;;;;;8.25;7.25;;;;;8.66;100.00;101535.09;5037558;28;45391;-72
2022/12/19 02:53:03;;;;;;;;;7.00;7.00;;;;;8.63;100.00;101513.97;5056244;28;45353;-72
2022/12/19 02:55:34;;;;;;;;;11.75;8.25;;;;;8.65;100.00;101528.06;5052282;28;45466;-72
2022/12/19 02:58:14;;;;;;;;;8.50;8.00;;;;;8.69;100.00;101512.38;5038141;28;46763;-72
2022/12/19 03:00:59;;;;;;;;;7.00;7.00;;;;;8.70;100.00;101512.41;5054108;28;45319;-72
2022/12/19 03:03:51;;;;;;;;;7.50;7.50;;;;;8.71;100.00;101497.50;5039408;28;45506;-74
2022/12/19 03:06:25;;;;;;;;;7.75;7.25;;;;;8.70;100.00;101498.34;5031770;28;45450;-71
2022/12/19 03:09:12;;;;;;;;;12.50;7.75;;;;;8.74;100.00;101518.66;5055404;28;45846;-71
2022/12/19 03:11:40;;;;;;;;;11.25;7.50;;;;;8.70;100.00;101483.44;5055094;28;45561;-72
2022/12/19 03:14:09;;;;;;;;;9.25;8.25;;;;;8.69;100.00;101497.47;5038136;28;57220;-73
2022/12/19 03:16:35;;;;;;;;;6.50;6.50;;;;;8.75;100.00;101492.38;5040081;28;45352;-72
2022/12/19 03:19:02;;;;;;;;;12.75;7.00;;;;;8.78;100.00;101492.44;5053269;28;45875;-71
2022/12/19 03:21:36;;;;;;;;;8.00;4.25;;;;;8.78;100.00;101497.69;5046471;28;45300;-73
2022/12/19 03:24:03;;;;;;;;;6.75;6.75;;;;;8.81;100.00;101499.53;5055567;28;45339;-71
2022/12/19 03:26:32;;;;;;;;;7.00;7.00;;;;;8.80;100.00;101510.94;5052117;28;45209;-71
2022/12/19 03:29:07;;;;;;;;;7.00;7.00;;;;;8.81;100.00;101494.28;5035885;28;47725;-70
2022/12/19 03:31:33;;;;;;;;;8.75;8.75;;;;;8.85;100.00;101511.97;5039002;28;45434;-71
2022/12/19 03:34:03;;;;;;;;;5.25;5.25;;;;;8.81;100.00;101503.06;5035962;28;45341;-73
2022/12/19 03:36:41;;;;;;;;;7.75;7.75;;;;;8.84;100.00;101512.78;5038617;28;45551;-71
2022/12/19 03:39:09;;;;;;;;;10.50;9.00;;;;;8.83;100.00;101487.31;5049311;28;46729;-72
2022/12/19 03:44:21;;;;;;;;;11.00;8.25;;;;;8.82;100.00;101490.78;5038762;28;45289;-71
2022/12/19 03:46:53;;;;;;;;;12.50;9.00;;;;;8.86;100.00;101519.00;5050907;28;45637;-72
2022/12/19 03:49:19;;;;;;;;;10.25;8.75;;;;;8.82;100.00;101499.59;5038451;28;45828;-72
2022/12/19 03:51:54;;;;;;;;;10.00;8.00;;;;;8.82;100.00;101510.13;5038580;28;45387;-72
2022/12/19 03:54:24;;;;;;;;;7.50;7.50;;;;;8.84;100.00;101504.88;5057346;28;45339;-72
2022/12/19 03:57:08;;;;;;;;;10.75;8.00;;;;;8.82;100.00;101510.13;5037281;28;47549;-71
2022/12/19 03:59:38;;;;;;;;;12.00;10.50;;;;;8.86;100.00;101504.09;5049405;28;47557;-72
2022/12/19 04:02:04;;;;;;;;;7.25;7.25;;;;;8.85;100.00;101520.75;5045956;28;45502;-72
2022/12/19 04:04:31;;;;;;;;;8.75;6.00;;;;;8.81;100.00;101500.44;5054694;28;45473;-71
2022/12/19 04:06:57;;;;;;;;;10.50;8.00;;;;;8.81;100.00;101518.88;5043517;28;45530;-72
2022/12/19 04:09:23;;;;;;;;;12.25;9.00;;;;;8.83;100.00;101518.91;5050076;28;64220;-72
2022/12/19 04:11:52;;;;;;;;;11.50;8.75;;;;;8.84;100.00;101523.31;5054706;28;45395;-72
2022/12/19 04:14:33;;;;;;;;;13.25;8.25;;;;;8.82;100.00;101520.66;5031899;28;45395;-73
2022/12/19 04:17:20;;;;;;;;;12.00;9.00;;;;;8.79;100.00;101533.75;5035576;28;45419;-73
2022/12/19 04:19:54;;;;;;;;;11.00;7.00;;;;;8.76;100.00;101512.56;5052058;28;47603;-73
2022/12/19 04:22:24;;;;;;;;;7.25;7.25;;;;;8.75;100.00;101504.63;5048518;28;45467;-71
2022/12/19 04:24:52;;;;;;;;;12.50;11.00;;;;;8.74;100.00;101513.41;5035256;28;45310;-71
2022/12/19 04:27:19;;;;;;;;;7.75;6.25;;;;;8.72;100.00;101505.44;5038393;28;45520;-73
2022/12/19 04:29:45;;;;;;;;;7.50;7.50;;;;;8.68;100.00;101506.19;5036805;28;46571;-72
2022/12/19 04:32:11;;;;;;;;;8.00;7.25;;;;;8.68;100.00;101514.06;5050963;28;60958;-72
2022/12/19 04:34:36;;;;;;;;;2.00;2.00;;;;;8.70;100.00;101500.97;5035976;28;45214;-72
2022/12/19 04:37:02;;;;;;;;;9.50;7.50;;;;;8.65;100.00;101514.88;5052157;28;56173;-73
2022/12/19 04:39:27;;;;;;;;;13.00;10.00;;;;;8.66;100.00;101519.31;5050555;28;47328;-72
2022/12/19 04:41:53;;;;;;;;;10.00;10.00;;;;;8.70;100.00;101522.94;5035206;28;59545;-72
2022/12/19 04:44:18;;;;;;;;;6.75;6.00;;;;;8.68;100.00;101505.28;5056079;28;45506;-73
2022/12/19 04:46:43;;;;;;;;;10.25;7.75;;;;;8.65;100.00;101500.84;5043156;28;45432;-73
2022/12/19 04:49:09;;;;;;;;;8.00;7.00;;;;;8.68;100.00;101516.69;5052413;28;62349;-72
2022/12/19 04:51:34;;;;;;;;;11.00;8.00;;;;;8.60;100.00;101494.53;5052828;28;56393;-72
2022/12/19 04:53:59;;;;;;;;;8.75;7.00;;;;;8.66;100.00;101505.25;5050586;28;56267;-71
2022/12/19 04:56:25;;;;;;;;;7.25;7.25;;;;;8.71;100.00;101508.03;5050207;28;53518;-70
2022/12/19 04:58:58;;;;;;;;;10.00;10.00;;;;;8.75;100.00;101507.28;5048558;28;61266;-72
2022/12/19 05:01:24;;;;;;;;;10.50;9.00;;;;;8.78;100.00;101512.59;5050378;28;45513;-72
2022/12/19 05:03:49;;;;;;;;;11.00;7.75;;;;;8.80;100.00;101509.19;5054583;28;46512;-71
2022/12/19 05:06:14;;;;;;;;;11.50;9.25;;;;;8.81;100.00;101499.53;5049872;28;58064;-72
2022/12/19 05:08:41;;;;;;;;;12.00;8.00;;;;;8.82;100.00;101489.06;5045725;28;59338;-72
2022/12/19 05:11:08;;;;;;;;;10.00;8.25;;;;;8.85;100.00;101490.91;5048760;28;45492;-71
2022/12/19 05:13:34;;;;;;;;;7.75;6.00;;;;;8.88;100.00;101490.97;5050741;28;45453;-72
2022/12/19 05:16:02;;;;;;;;;7.00;5.75;;;;;8.95;100.00;101492.94;5050544;28;53588;-72
2022/12/19 05:18:28;;;;;;;;;8.25;8.25;;;;;8.92;100.00;101493.72;5050085;28;45860;-73
2022/12/19 05:20:53;;;;;;;;;7.50;7.00;;;;;8.98;100.00;101493.00;5054936;28;45448;-72
2022/12/19 05:23:18;;;;;;;;;7.50;6.25;;;;;8.97;100.00;101490.34;5027318;28;45377;-73
2022/12/19 05:25:44;;;;;;;;;7.75;7.75;;;;;8.98;100.00;101486.84;5052897;28;45280;-71
2022/12/19 05:28:09;;;;;;;;;9.75;7.00;;;;;9.04;100.00;101497.56;5048141;28;59165;-72
2022/12/19 05:30:34;;;;;;;;;9.00;9.00;;;;;9.06;100.00;101498.50;5052525;28;56473;-73
2022/12/19 05:33:00;;;;;;;;;10.00;7.75;;;;;9.06;100.00;101511.69;5054700;28;47324;-70
2022/12/19 05:35:26;;;;;;;;;8.75;7.00;;;;;9.05;100.00;101523.94;5189851;22;45218;-71
2022/12/19 05:37:51;;;;;;;;;11.00;7.75;;;;;9.04;100.00;101522.16;5053672;28;46286;-72
2022/12/19 05:40:16;;;;;;;;;6.75;6.75;;;;;9.00;100.00;101504.50;5054828;28;55387;-71
2022/12/19 05:42:42;;;;;;;;;8.00;8.00;;;;;9.00;100.00;101520.31;5053105;28;55515;-70
2022/12/19 05:45:07;;;;;;;;;9.00;7.75;;;;;9.04;100.00;101516.88;5037414;28;45486;-72
2022/12/19 05:47:33;;;;;;;;;11.25;10.25;;;;;9.05;100.00;101512.50;5057817;28;46356;-73
2022/12/19 05:49:58;;;;;;;;;9.75;8.00;;;;;9.04;100.00;101508.09;5058910;28;49114;-72
2022/12/19 05:52:24;;;;;;;;;11.00;6.50;;;;;9.02;100.00;101500.16;5058664;28;45510;-73
2022/12/19 05:54:49;;;;;;;;;12.50;11.00;;;;;9.03;100.00;101506.31;5059047;28;45444;-69
2022/12/19 05:57:15;;;;;;;;;13.50;7.00;;;;;9.03;100.00;101503.69;5057127;28;46107;-71
2022/12/19 05:59:41;;;;;;;;;12.00;8.00;;;;;8.97;100.00;101507.03;5037403;28;57891;-72
2022/12/19 06:02:06;;;;;;;;;8.75;7.00;;;;;9.01;100.00;101508.03;5056067;28;47042;-71
2022/12/19 06:04:31;;;;;;;;;7.50;7.50;;;;;8.99;100.00;101517.59;5057188;28;54790;-73
2022/12/19 06:06:57;;;;;;;;;7.75;7.75;;;;;8.96;100.00;101518.44;5058146;28;57499;-71
2022/12/19 06:09:22;;;;;;;;;9.75;6.75;;;;;8.98;100.00;101513.19;5058435;28;45453;-70
2022/12/19 06:11:48;;;;;;;;;6.50;6.50;;;;;8.97;100.00;101522.84;5058465;28;45705;-69
2022/12/19 06:14:13;;;;;;;;;11.25;8.25;;;;;8.97;100.00;101508.78;5040435;28;45533;-71
2022/12/19 06:16:39;;;;;;;;;8.00;8.00;;;;;8.93;100.00;101519.22;5057456;28;45498;-71
2022/12/19 06:19:04;;;;;;;;;15.75;8.50;;;;;8.93;100.00;101508.69;5057637;28;59633;-71
2022/12/19 06:21:29;;;;;;;;;10.00;8.50;;;;;8.92;100.00;101529.72;5057958;28;51513;-71
2022/12/19 06:23:55;;;;;;;;;8.00;6.25;;;;;8.91;100.00;101517.41;5058563;28;45411;-70
2022/12/19 06:26:21;;;;;;;;;9.75;8.00;;;;;8.91;100.00;101514.75;5057637;28;45486;-69
2022/12/19 06:28:51;;;;;;;;;11.75;8.75;;;;;8.94;100.00;101504.31;5058359;28;45569;-71
2022/12/19 06:31:18;;;;;;;;;7.50;7.50;;;;;8.95;100.00;101511.38;5038397;28;45491;-69
2022/12/19 06:33:43;;;;;;;;;9.00;6.00;;;;;8.92;100.00;101503.38;5058392;28;45479;-71
2022/12/19 06:36:25;;;;;;;;;8.75;7.00;;;;;8.98;100.00;101489.47;5055098;28;62442;-73
2022/12/19 06:38:50;;;;;;;;;8.75;7.75;;;;;8.91;100.00;101486.69;5056115;28;45545;-71
2022/12/19 06:44:04;;;;;;;;;8.75;7.00;;;;;8.97;100.00;101496.50;5034006;28;45466;-73
2022/12/19 06:46:29;;;;;;;;;8.00;8.00;;;;;9.02;100.00;101489.63;5043860;28;45831;-72
2022/12/19 06:48:55;;;;;;;;;6.75;4.25;;;;;9.00;100.00;101485.13;5049420;28;45698;-71
2022/12/19 06:51:20;;;;;;;;;9.50;6.50;;;;;9.05;100.00;101491.44;5056161;28;45467;-72
2022/12/19 06:53:46;;;;;;;;;7.00;6.00;;;;;9.06;100.00;101496.75;5057069;28;45820;-72
2022/12/19 06:56:13;;;;;;;;;8.00;6.00;;;;;9.07;100.00;101495.03;5057027;28;45745;-71
2022/12/19 06:58:39;;;;;;;;;7.25;7.00;;;;;9.04;100.00;101482.63;5047050;28;45482;-72
2022/12/19 07:01:04;;;;;;;;;7.75;6.25;;;;;9.10;100.00;101495.09;5042656;28;55669;-71
2022/12/19 07:03:35;;;;;;;;;8.75;3.75;;;;;9.10;100.00;101493.34;5046964;28;45307;-71
2022/12/19 07:06:01;;;;;;;;;7.50;5.75;;;;;9.14;100.00;101494.31;5027458;28;46750;-72
2022/12/19 07:08:26;;;;;;;;;7.50;6.50;;;;;9.16;100.00;101500.50;5040384;28;45702;-73
2022/12/19 07:10:52;;;;;;;;;11.00;8.00;;;;;9.18;100.00;101498.84;5050763;28;57716;-70
2022/12/19 07:13:17;;;;;;;;;7.25;6.00;;;;;9.18;100.00;101501.47;5038820;28;45562;-70
2022/12/19 07:15:43;;;;;;;;;8.00;6.00;;;;;9.16;100.00;101503.16;5052819;28;45950;-69
2022/12/19 07:18:09;;;;;;;;;6.00;6.00;;;;;9.21;100.00;101506.81;5040722;28;45715;-69
2022/12/19 07:20:35;;;;;;;;;8.00;5.00;;;;;9.20;100.00;101507.66;5057360;28;45451;-68
2022/12/19 07:23:01;;;;;;;;;4.00;3.00;;;;;9.15;100.00;101491.72;5051567;28;45778;-69
2022/12/19 07:25:26;;;;;;;;;7.25;7.25;;;;;9.22;100.00;101502.47;5037911;28;46362;-69
2022/12/19 07:27:51;;;;;;;;;7.50;6.00;;;;;9.21;100.00;101506.81;5036719;28;54168;-69
2022/12/19 07:30:17;;;;;;;;;8.50;6.00;;;;;9.15;100.00;101504.00;5036389;28;53876;-69
2022/12/19 07:32:42;;;;;;;;;11.75;6.50;;;;;9.15;100.00;101509.28;5052135;28;45432;-74
2022/12/19 07:35:08;;;;;;;;;7.50;6.00;;;;;9.11;100.00;101500.41;5049267;28;59231;-72
2022/12/19 07:37:33;;;;;;;;;8.50;6.75;;;;;9.13;100.00;101506.59;5054676;28;45492;-73
2022/12/19 07:39:59;;;;;;;;;6.00;6.00;;;;;9.18;100.00;101515.53;5062606;28;45359;-72
2022/12/19 07:42:24;;;;;;;;;7.75;6.00;;;;;9.17;100.00;101510.22;5057156;28;45346;-72
2022/12/19 07:44:50;;;;;;;;;8.25;7.50;;;;;9.23;100.00;101514.78;5050391;28;46482;-70
2022/12/19 07:47:15;;;;;;;;;7.00;5.50;;;;;9.22;100.00;101511.25;5055812;28;60739;-70
2022/12/19 07:49:40;;;;;;;;;8.25;7.00;;;;;9.22;100.00;101513.88;5045082;28;52066;-73
2022/12/19 07:52:06;;;;;;;;;7.00;4.00;;;;;9.27;100.00;101519.25;5033717;28;45545;-73
2022/12/19 07:54:32;;;;;;;;;8.75;7.00;;;;;9.29;100.00;101507.03;5056213;28;50654;-71
2022/12/19 07:56:57;;;;;;;;;8.00;7.00;;;;;9.27;100.00;101514.91;5056492;28;45420;-73
2022/12/19 07:59:22;;;;;;;;;8.75;7.75;;;;;9.29;100.00;101534.28;5056288;28;55113;-72
2022/12/19 08:01:48;;;;;;;;;7.75;4.00;;;;;9.34;100.00;101537.03;5050528;28;45584;-71
2022/12/19 08:04:13;;;;;;;;;4.50;4.50;;;;;9.35;100.00;101529.16;5051197;28;60679;-71
2022/12/19 08:06:39;;;;;;;;;12.75;6.00;;;;;9.37;100.00;101540.63;5053061;28;45469;-73
2022/12/19 08:09:05;;;;;;;;;7.25;6.75;;;;;9.37;100.00;101532.72;5048929;28;45546;-72
2022/12/19 08:11:30;;;;;;;;;7.00;4.00;;;;;9.38;100.00;101539.81;5055178;28;45495;-74
2022/12/19 08:13:56;;;;;;;;;7.75;6.75;;;;;9.43;100.00;101540.81;5054079;28;62723;-71
2022/12/19 08:16:24;;;;;;;;;7.00;6.25;;;;;9.46;100.00;101540.00;5052785;28;45390;-71
2022/12/19 08:18:49;;;;;;;;;7.00;6.00;;;;;9.43;100.00;101543.47;5054345;28;45225;-71
2022/12/19 08:21:15;;;;;;;;;6.00;6.00;;;;;9.45;100.00;101535.59;5048448;28;54774;-71
2022/12/19 08:23:40;;;;;;;;;8.50;6.00;;;;;9.49;100.00;101526.03;5054650;28;45535;-71
2022/12/19 08:26:23;;;;;;;;;9.75;6.00;;;;;9.54;100.00;101546.38;5055070;28;59694;-72
2022/12/19 08:28:49;;;;;;;;;7.00;7.00;;;;;9.57;100.00;101535.00;5025426;28;45650;-71
2022/12/19 08:31:16;;;;;;;;;7.00;7.00;;;;;9.59;100.00;101530.69;5049302;28;45446;-71
2022/12/19 08:33:41;;;;;;;;;7.00;5.75;;;;;9.61;100.00;101534.25;5049255;28;46511;-71
2022/12/19 08:36:09;;;;;;;;;6.00;6.00;;;;;9.64;100.00;101542.22;5034321;28;45420;-70
2022/12/19 08:38:35;;;;;;;;;4.75;4.25;;;;;9.62;100.00;101522.84;5053766;28;45783;-73
2022/12/19 08:41:01;;;;;;;;;6.00;6.00;;;;;9.67;100.00;101515.94;5055059;28;45492;-71
2022/12/19 08:43:27;;;;;;;;;5.50;5.50;;;;;9.70;100.00;101521.31;5052594;28;45472;-74
2022/12/19 08:45:52;;;;;;;;;10.50;7.00;;;;;9.72;100.00;101527.50;5051136;28;45410;-72
2022/12/19 08:48:18;;;;;;;;;3.00;3.00;;;;;9.78;100.00;101526.75;5055140;28;45557;-70
2022/12/19 08:50:55;;;;;;;;;10.25;6.75;;;;;9.82;100.00;101536.53;5055152;28;45594;-73
2022/12/19 08:53:21;;;;;;;;;8.50;7.00;;;;;9.85;100.00;101540.13;5054035;28;46701;-73
2022/12/19 08:55:47;;;;;;;;;4.00;4.00;;;;;9.86;100.00;101525.22;5049705;28;45486;-73
2022/12/19 08:58:13;;;;;;;;;7.75;7.75;;;;;9.90;100.00;101520.03;5054610;28;45284;-73
2022/12/19 09:00:38;;;;;;;;;6.25;6.25;;;;;9.99;100.00;101527.28;5050773;28;45551;-73
2022/12/19 09:03:04;;;;;;;;;8.00;4.75;;;;;10.02;100.00;101526.50;5054439;28;46788;-72
2022/12/19 09:05:29;;;;;;;;;9.50;6.00;;;;;10.02;100.00;101519.47;5054055;28;56112;-71
2022/12/19 09:07:54;;;;;;;;;6.00;6.00;;;;;10.01;100.00;101506.22;5054967;28;45299;-74
2022/12/19 09:10:20;;;;;;;;;7.50;6.00;;;;;10.08;100.00;101518.72;5053821;28;52318;-72
2022/12/19 09:12:45;;;;;;;;;6.25;4.00;;;;;10.12;100.00;101515.28;5051996;28;62035;-72
2022/12/19 09:15:11;;;;;;;;;5.50;5.25;;;;;10.16;100.00;101518.03;5054655;28;48819;-72
2022/12/19 09:17:36;;;;;;;;;9.25;7.00;;;;;10.21;100.00;101528.69;5054315;28;45442;-71
2022/12/19 09:20:02;;;;;;;;;8.25;7.00;;;;;10.22;100.00;101517.28;5055285;28;45147;-69
2022/12/19 09:22:27;;;;;;;;;7.25;4.50;;;;;10.26;100.00;101516.53;5058125;28;46153;-72
2022/12/19 09:24:53;;;;;;;;;6.25;4.75;;;;;10.27;100.00;101518.31;5055752;28;61050;-74
2022/12/19 09:27:19;;;;;;;;;7.25;7.00;;;;;10.31;100.00;101519.28;5057744;28;45505;-71
2022/12/19 09:29:44;;;;;;;;;9.50;6.50;;;;;10.38;100.00;101542.31;5057675;28;49538;-71
2022/12/19 09:32:10;;;;;;;;;8.75;6.75;;;;;10.40;100.00;101527.44;5057448;28;45653;-72
2022/12/19 09:34:35;;;;;;;;;7.25;6.00;;;;;10.43;100.00;101540.69;5058130;28;55281;-71
2022/12/19 09:37:01;;;;;;;;;6.75;4.00;;;;;10.34;100.00;101525.53;5057288;28;54156;-73
2022/12/19 09:39:26;;;;;;;;;5.25;4.00;;;;;10.45;100.00;101557.47;5053724;28;45443;-72
2022/12/19 09:42:13;;;;;;;;;4.75;4.75;;;;;10.46;100.00;101567.16;5056846;28;45616;-73
2022/12/19 09:45:01;;;;;;;;;6.75;6.50;;;;;10.47;100.00;101566.31;5038365;28;45567;-72
2022/12/19 09:47:29;;;;;;;;;6.75;6.75;;;;;10.44;100.00;101560.97;5036499;28;45817;-73
2022/12/19 09:49:56;;;;;;;;;7.25;7.25;;;;;10.46;100.00;101560.13;5036190;28;45706;-72
2022/12/19 09:52:39;;;;;;;;;7.50;7.00;;;;;10.49;100.00;101569.84;5038073;28;45358;-73
2022/12/19 09:55:10;;;;;;;;;4.75;4.75;;;;;10.49;100.00;101569.84;5035685;28;45581;-73
2022/12/19 09:57:53;;;;;;;;;6.25;4.00;;;;;10.44;100.00;101556.56;5055468;28;45722;-76
2022/12/19 10:00:20;;;;;;;;;8.00;6.00;;;;;10.48;100.00;101557.53;5048724;28;45383;-71
2022/12/19 10:02:55;;;;;;;;;8.00;6.00;;;;;10.49;100.00;101547.00;5055450;28;46395;-74
2022/12/19 10:05:42;;;;;;;;;7.25;6.50;;;;;10.48;100.00;101552.25;5030224;28;46062;-75
2022/12/19 10:08:24;;;;;;;;;6.75;4.00;;;;;10.53;100.00;101547.06;5036083;28;45581;-74
2022/12/19 10:11:11;;;;;;;;;7.75;6.75;;;;;10.55;100.00;101546.25;5038003;28;45958;-73
2022/12/19 10:13:56;;;;;;;;;6.50;6.50;;;;;10.58;100.00;101543.66;5053455;28;45699;-73
2022/12/19 10:16:52;;;;;;;;;9.50;7.00;;;;;10.62;100.00;101536.72;5053455;28;45446;-73
2022/12/19 10:19:33;;;;;;;;;4.00;4.00;;;;;10.58;100.00;101530.47;5033528;28;45382;-70
2022/12/19 10:22:26;;;;;;;;;8.00;8.00;;;;;10.66;100.00;101542.09;5055667;28;45497;-71
2022/12/19 10:25:22;;;;;;;;;7.25;5.75;;;;;10.69;100.00;101534.22;5049700;28;47479;-72
2022/12/19 10:27:53;;;;;;;;;9.25;6.50;;;;;10.72;100.00;101525.50;5053962;28;45550;-72
2022/12/19 10:30:20;;;;;;;;;5.50;4.75;;;;;10.75;100.00;101530.81;5055553;28;45428;-71
2022/12/19 10:33:00;;;;;;;;;6.75;4.50;;;;;10.77;100.00;101523.84;5050390;28;45486;-72
2022/12/19 10:35:32;;;;;;;;;8.00;6.50;;;;;10.75;100.00;101523.78;5047618;28;46575;-70
2022/12/19 10:38:09;;;;;;;;;12.00;8.00;;;;;10.81;100.00;101533.59;5054156;28;45454;-71
2022/12/19 10:40:48;;;;;;;;;9.00;7.00;;;;;10.83;100.00;101528.38;5048207;28;45533;-71
2022/12/19 10:43:43;;;;;;;;;8.00;8.00;;;;;10.88;100.00;101532.00;5051741;28;45399;-70
2022/12/19 10:46:14;;;;;;;;;6.25;6.00;;;;;10.87;100.00;101524.94;5025854;28;45321;-72
2022/12/19 10:48:39;;;;;;;;;8.33;5.33;;;;;10.84;100.00;101517.81;5034103;28;45369;-69
2022/12/19 10:51:12;;;;;;;;;5.50;5.50;;;;;10.84;100.00;101517.81;5057431;28;45498;-70
2022/12/19 10:53:37;;;;;;;;;5.00;5.00;;;;;10.92;100.00;101533.81;5057904;28;45463;-69
2022/12/19 10:56:21;;;;;;;;;9.25;8.00;;;;;10.95;100.00;101542.72;5017051;28;46257;-71
2022/12/19 10:58:53;;;;;;;;;8.25;8.25;;;;;10.95;100.00;101518.94;5057365;28;45310;-71
2022/12/19 11:01:24;;;;;;;;;9.00;8.75;;;;;11.02;100.00;101535.78;5060851;28;45450;-73
2022/12/19 11:04:25;;;;;;;;;8.00;7.00;;;;;11.03;100.00;101516.47;5056205;28;45526;-73
2022/12/19 11:07:03;;;;;;;;;11.75;7.75;;;;;11.06;100.00;101508.56;5019631;28;47511;-71
2022/12/19 11:09:40;;;;;;;;;13.25;8.50;;;;;11.09;100.00;101521.88;5056408;28;45841;-72
2022/12/19 11:12:10;;;;;;;;;12.00;9.00;;;;;11.13;100.00;101514.88;5046657;28;45518;-69
2022/12/19 11:14:37;;;;;;;;;9.00;7.00;;;;;11.12;100.00;101508.69;5039410;28;45554;-76
2022/12/19 11:17:02;;;;;;;;;5.00;5.00;;;;;11.15;100.00;101497.31;5042849;28;46830;-72
2022/12/19 11:19:36;;;;;;;;;6.33;4.33;;;;;11.17;100.00;101498.22;5040988;28;45202;-73
2022/12/19 11:22:13;;;;;;;;;8.00;4.00;;;;;11.21;100.00;101492.13;5040001;28;46136;-72
2022/12/19 11:24:47;;;;;;;;;4.00;4.00;;;;;11.30;100.00;101504.66;5021379;28;45415;-73
2022/12/19 11:27:37;;;;;;;;;5.50;4.75;;;;;11.35;100.00;101501.22;5024138;28;45495;-72
2022/12/19 11:30:17;;;;;;;;;2.67;2.67;;;;;11.35;100.00;101487.13;5055037;28;45429;-73
2022/12/19 11:32:45;;;;;;;;;3.67;3.67;;;;;11.42;100.00;101503.09;5034520;28;45556;-74
2022/12/19 11:35:24;;;;;;;;;6.50;4.00;;;;;11.46;100.00;101489.09;5057158;28;45581;-73
2022/12/19 11:37:59;;;;;;;;;7.33;5.00;;;;;11.49;100.00;101494.41;5056639;28;47000;-74